createdAt,value
2022-10-12T00:01:02.904Z,11.21
2022-10-12T00:03:31.126Z,11.25
2022-10-12T00:06:05.415Z,11.24
2022-10-12T00:08:34.614Z,11.19
2022-10-12T00:11:03.045Z,11.27
2022-10-12T00:13:32.890Z,11.20
2022-10-12T00:16:04.524Z,11.25
2022-10-12T00:18:33.078Z,9.96
2022-10-12T00:21:05.718Z,11.17
2022-10-12T00:23:35.406Z,11.15
2022-10-12T00:26:06.615Z,11.00
2022-10-12T00:28:37.368Z,11.09
2022-10-12T00:31:09.806Z,11.10
2022-10-12T00:33:39.088Z,11.12
2022-10-12T00:36:19.455Z,11.06
2022-10-12T00:38:48.752Z,10.92
2022-10-12T00:41:20.105Z,11.02
2022-10-12T00:43:55.424Z,10.92
2022-10-12T00:46:34.672Z,11.02
2022-10-12T00:49:11.555Z,10.94
2022-10-12T00:51:41.310Z,10.91
2022-10-12T00:54:14.286Z,10.77
2022-10-12T00:56:46.099Z,10.41
2022-10-12T00:59:23.892Z,10.80
2022-10-12T01:01:52.166Z,10.79
2022-10-12T01:04:20.603Z,10.71
2022-10-12T01:06:48.862Z,10.72
2022-10-12T01:09:17.570Z,10.70
2022-10-12T01:11:45.749Z,10.59
2022-10-12T01:14:15.560Z,10.43
2022-10-12T01:16:53.586Z,10.61
2022-10-12T01:20:12.669Z,10.46
2022-10-12T01:22:48.419Z,10.37
2022-10-12T01:25:34.737Z,9.89
2022-10-12T01:28:14.891Z,10.41
2022-10-12T01:30:49.890Z,9.71
2022-10-12T01:33:29.683Z,10.28
2022-10-12T01:36:08.000Z,9.85
2022-10-12T01:38:49.292Z,10.10
2022-10-12T01:41:22.002Z,9.92
2022-10-12T01:43:53.108Z,10.08
2022-10-12T01:46:46.116Z,10.06
2022-10-12T01:49:18.395Z,9.74
2022-10-12T01:52:20.396Z,9.86
2022-10-12T01:55:25.899Z,9.90
2022-10-12T01:58:19.217Z,9.98
2022-10-12T02:01:00.432Z,9.79
2022-10-12T02:03:38.780Z,9.83
2022-10-12T02:06:11.101Z,9.93
2022-10-12T02:08:47.738Z,9.76
2022-10-12T02:11:19.674Z,9.81
2022-10-12T02:13:53.851Z,9.76
2022-10-12T02:16:27.011Z,9.72
2022-10-12T02:18:58.867Z,9.80
2022-10-12T02:21:32.841Z,9.69
2022-10-12T02:24:05.464Z,9.84
2022-10-12T02:26:36.762Z,9.51
2022-10-12T02:29:14.765Z,9.72
2022-10-12T02:31:53.308Z,9.63
2022-10-12T02:34:26.866Z,9.43
2022-10-12T02:37:05.825Z,9.70
2022-10-12T02:39:40.679Z,9.51
2022-10-12T02:42:13.605Z,9.53
2022-10-12T02:44:44.138Z,9.39
2022-10-12T02:47:14.193Z,9.38
2022-10-12T02:49:46.020Z,9.31
2022-10-12T02:52:14.317Z,9.31
2022-10-12T02:54:42.689Z,9.17
2022-10-12T02:57:10.989Z,9.18
2022-10-12T02:59:39.294Z,9.17
2022-10-12T03:02:08.897Z,9.20
2022-10-12T03:04:37.303Z,9.09
2022-10-12T03:07:06.983Z,9.05
2022-10-12T03:09:35.269Z,8.96
2022-10-12T03:12:03.547Z,8.92
2022-10-12T03:14:33.184Z,8.85
2022-10-12T03:17:01.789Z,8.92
2022-10-12T03:19:30.059Z,8.87
2022-10-12T03:21:58.311Z,8.79
2022-10-12T03:24:27.964Z,8.85
2022-10-12T03:26:56.186Z,8.73
2022-10-12T03:29:24.451Z,8.71
2022-10-12T03:31:52.708Z,8.53
2022-10-12T03:34:20.998Z,8.56
2022-10-12T03:36:49.259Z,8.47
2022-10-12T03:39:17.534Z,8.37
2022-10-12T03:41:47.148Z,8.22
2022-10-12T03:44:15.396Z,8.02
2022-10-12T03:46:43.697Z,8.20
2022-10-12T03:49:11.971Z,8.22
2022-10-12T03:51:40.208Z,8.22
2022-10-12T03:54:08.449Z,8.21
2022-10-12T03:56:36.713Z,8.18
2022-10-12T03:59:06.802Z,8.17
2022-10-12T04:01:35.158Z,8.16
2022-10-12T04:04:03.493Z,8.19
2022-10-12T04:06:31.735Z,8.18
2022-10-12T04:09:00.016Z,8.23
2022-10-12T04:11:28.680Z,8.35
2022-10-12T04:13:56.911Z,8.35
2022-10-12T04:16:28.833Z,8.28
2022-10-12T04:18:59.346Z,8.37
2022-10-12T04:21:30.142Z,8.25
2022-10-12T04:23:58.471Z,8.32
2022-10-12T04:26:26.739Z,8.32
2022-10-12T04:28:55.017Z,8.27
2022-10-12T04:31:23.362Z,8.26
2022-10-12T04:33:56.909Z,8.34
2022-10-12T04:36:25.634Z,8.35
2022-10-12T04:38:58.390Z,8.43
2022-10-12T04:41:29.438Z,8.41
2022-10-12T04:43:57.734Z,8.47
2022-10-12T04:46:26.070Z,8.29
2022-10-12T04:48:55.737Z,8.34
2022-10-12T04:51:24.816Z,8.47
2022-10-12T04:53:53.129Z,8.52
2022-10-12T04:56:21.400Z,8.57
2022-10-12T04:58:49.709Z,8.58
2022-10-12T05:01:18.007Z,8.55
2022-10-12T05:03:46.418Z,8.57
2022-10-12T05:06:16.103Z,8.62
2022-10-12T05:08:44.394Z,8.55
2022-10-12T05:11:12.779Z,8.61
2022-10-12T05:13:41.068Z,8.54
2022-10-12T05:16:09.410Z,8.54
2022-10-12T05:18:37.662Z,8.75
2022-10-12T05:21:06.209Z,8.70
2022-10-12T05:23:35.823Z,8.87
2022-10-12T05:26:04.423Z,8.75
2022-10-12T05:28:37.011Z,8.75
2022-10-12T05:31:08.263Z,8.73
2022-10-12T05:33:36.565Z,8.86
2022-10-12T05:36:05.434Z,8.87
2022-10-12T05:38:35.073Z,8.82
2022-10-12T05:41:03.357Z,8.91
2022-10-12T05:43:31.633Z,8.86
2022-10-12T05:45:59.883Z,8.95
2022-10-12T05:48:28.114Z,9.00
2022-10-12T05:50:56.736Z,9.04
2022-10-12T05:53:25.727Z,9.11
2022-10-12T05:55:57.186Z,9.23
2022-10-12T05:58:26.354Z,9.13
2022-10-12T06:00:55.344Z,9.19
2022-10-12T06:03:26.188Z,9.19
2022-10-12T06:05:56.824Z,9.29
2022-10-12T06:08:25.079Z,9.21
2022-10-12T06:10:54.954Z,9.22
2022-10-12T06:13:23.736Z,9.14
2022-10-12T06:15:52.402Z,9.25
2022-10-12T06:18:21.423Z,9.21
2022-10-12T06:20:56.517Z,9.19
2022-10-12T06:23:37.284Z,9.20
2022-10-12T06:26:07.290Z,9.36
2022-10-12T06:28:35.622Z,9.33
2022-10-12T06:31:03.927Z,9.28
2022-10-12T06:33:32.165Z,9.40
2022-10-12T06:36:00.417Z,9.41
2022-10-12T06:38:54.039Z,9.39
2022-10-12T06:41:23.684Z,9.55
2022-10-12T06:43:51.944Z,9.54
2022-10-12T06:46:20.210Z,9.44
2022-10-12T06:48:48.517Z,9.56
2022-10-12T06:51:16.784Z,9.48
2022-10-12T06:53:45.044Z,9.46
2022-10-12T06:56:13.798Z,9.59
2022-10-12T06:58:43.422Z,9.69
2022-10-12T07:01:11.753Z,9.64
2022-10-12T07:03:40.213Z,9.83
2022-10-12T07:06:11.580Z,9.71
2022-10-12T07:08:41.168Z,9.80
2022-10-12T07:11:15.082Z,9.89
2022-10-12T07:13:44.629Z,9.91
2022-10-12T07:16:12.917Z,9.92
2022-10-12T07:18:41.168Z,10.02
2022-10-12T07:21:09.532Z,10.28
2022-10-12T07:23:42.523Z,10.24
2022-10-12T07:26:14.076Z,10.32
2022-10-12T07:28:42.360Z,10.33
2022-10-12T07:31:12.257Z,10.42
2022-10-12T07:33:40.552Z,10.53
2022-10-12T07:36:14.423Z,10.46
2022-10-12T07:38:45.772Z,10.47
2022-10-12T07:41:14.673Z,10.49
2022-10-12T07:43:43.528Z,10.55
2022-10-12T07:46:13.533Z,10.54
2022-10-12T07:48:45.914Z,10.63
2022-10-12T07:51:15.796Z,10.59
2022-10-12T07:53:44.095Z,11.27
2022-10-12T07:56:15.935Z,10.81
2022-10-12T07:58:44.945Z,10.93
2022-10-12T08:01:14.601Z,11.26
2022-10-12T08:03:49.086Z,11.11
2022-10-12T08:06:21.283Z,11.12
2022-10-12T08:08:50.472Z,10.85
2022-10-12T08:11:20.336Z,11.32
2022-10-12T08:13:49.328Z,11.47
2022-10-12T08:16:21.805Z,11.43
2022-10-12T08:18:50.339Z,11.26
2022-10-12T08:21:19.137Z,11.42
2022-10-12T08:23:47.693Z,11.51
2022-10-12T08:26:16.911Z,11.67
2022-10-12T08:28:45.377Z,11.81
2022-10-12T08:31:16.495Z,11.72
2022-10-12T08:33:46.230Z,11.74
2022-10-12T08:36:15.133Z,11.57
2022-10-12T08:38:44.389Z,11.88
2022-10-12T08:41:41.046Z,12.05
2022-10-12T08:44:52.346Z,12.10
2022-10-12T08:47:28.520Z,12.19
2022-10-12T08:50:00.280Z,12.14
2022-10-12T08:52:59.253Z,12.10
2022-10-12T08:55:37.239Z,11.99
2022-10-12T08:58:12.196Z,12.06
2022-10-12T09:00:40.557Z,12.08
2022-10-12T09:03:20.197Z,12.07
2022-10-12T09:05:56.571Z,11.90
2022-10-12T09:08:35.528Z,11.90
2022-10-12T09:11:21.892Z,11.83
2022-10-12T09:14:04.662Z,12.00
2022-10-12T09:16:37.394Z,12.06
2022-10-12T09:19:14.740Z,12.03
2022-10-12T09:21:46.042Z,12.21
2022-10-12T09:24:20.440Z,12.31
2022-10-12T09:26:53.908Z,12.38
2022-10-12T09:29:26.688Z,12.71
2022-10-12T09:32:29.434Z,12.53
2022-10-12T09:34:58.006Z,12.81
2022-10-12T09:37:31.757Z,12.90
2022-10-12T09:40:00.558Z,12.92
2022-10-12T09:42:28.851Z,12.94
2022-10-12T09:45:05.171Z,12.94
2022-10-12T09:47:34.753Z,12.93
2022-10-12T09:50:06.827Z,13.07
2022-10-12T09:52:44.494Z,13.18
2022-10-12T09:58:02.689Z,13.25
2022-10-12T10:00:33.915Z,13.30
2022-10-12T10:03:04.164Z,13.32
2022-10-12T10:05:34.891Z,13.49
2022-10-12T10:08:20.960Z,13.47
2022-10-12T10:10:51.966Z,13.46
2022-10-12T10:13:22.006Z,13.40
2022-10-12T10:15:53.461Z,13.46
2022-10-12T10:18:35.254Z,13.51
2022-10-12T10:21:06.483Z,13.53
2022-10-12T10:23:44.317Z,13.66
2022-10-12T10:26:19.395Z,13.68
2022-10-12T10:28:49.565Z,13.71
2022-10-12T10:31:23.163Z,13.49
2022-10-12T10:34:13.028Z,13.63
2022-10-12T10:36:46.638Z,13.22
2022-10-12T10:39:22.404Z,13.67
2022-10-12T10:41:51.841Z,13.81
2022-10-12T10:44:30.893Z,13.90
2022-10-12T10:47:03.699Z,14.02
2022-10-12T10:49:41.560Z,13.69
2022-10-12T10:52:24.564Z,14.13
2022-10-12T10:55:18.723Z,14.10
2022-10-12T10:57:58.071Z,14.19
2022-10-12T11:00:38.396Z,14.23
2022-10-12T11:03:14.796Z,14.20
2022-10-12T11:05:48.266Z,14.28
2022-10-12T11:08:23.316Z,14.29
2022-10-12T11:11:00.408Z,14.35
2022-10-12T11:13:35.547Z,14.20
2022-10-12T11:16:12.251Z,14.57
2022-10-12T11:18:46.398Z,14.47
2022-10-12T11:21:21.359Z,14.51
2022-10-12T11:23:54.425Z,14.49
2022-10-12T11:26:30.652Z,14.67
2022-10-12T11:29:01.302Z,14.70
2022-10-12T11:31:35.188Z,14.68
2022-10-12T11:34:12.631Z,14.67
2022-10-12T11:37:07.529Z,14.71
2022-10-12T11:39:38.125Z,14.61
2022-10-12T11:42:22.152Z,14.66
2022-10-12T11:44:51.806Z,14.77
2022-10-12T11:47:33.082Z,14.78
2022-10-12T11:50:05.210Z,14.86
2022-10-12T11:52:46.685Z,14.88
2022-10-12T11:55:48.081Z,14.81
2022-10-12T11:58:36.352Z,14.86
2022-10-12T12:01:44.928Z,14.80
2022-10-12T12:04:43.355Z,15.03
2022-10-12T12:07:44.279Z,14.97
2022-10-12T12:11:06.367Z,15.11
2022-10-12T12:13:36.028Z,15.10
2022-10-12T12:16:34.558Z,15.05
2022-10-12T12:19:33.845Z,15.25
2022-10-12T12:22:33.207Z,15.20
2022-10-12T12:25:35.435Z,15.23
2022-10-12T12:28:20.749Z,15.40
2022-10-12T12:31:01.571Z,15.40
2022-10-12T12:33:32.953Z,15.39
2022-10-12T12:36:04.293Z,14.42
2022-10-12T12:38:34.613Z,15.43
2022-10-12T12:41:08.517Z,15.71
2022-10-12T12:43:52.333Z,15.67
2022-10-12T12:46:22.186Z,15.68
2022-10-12T12:49:05.244Z,15.77
2022-10-12T12:51:43.863Z,15.59
2022-10-12T12:54:23.272Z,15.62
2022-10-12T12:57:28.407Z,15.55
2022-10-12T13:00:16.506Z,14.84
2022-10-12T13:03:49.844Z,15.59
2022-10-12T13:07:24.195Z,15.64
2022-10-12T13:10:20.503Z,15.62
2022-10-12T13:13:07.165Z,15.57
2022-10-12T13:15:59.442Z,15.44
2022-10-12T13:18:52.726Z,15.51
2022-10-12T13:21:24.768Z,15.42
2022-10-12T13:24:03.328Z,15.37
2022-10-12T13:26:33.251Z,15.56
2022-10-12T13:29:03.920Z,15.73
2022-10-12T13:31:39.216Z,15.83
2022-10-12T13:34:17.950Z,16.08
2022-10-12T13:36:55.459Z,15.92
2022-10-12T13:39:24.099Z,16.16
2022-10-12T13:41:56.112Z,16.32
2022-10-12T13:44:27.525Z,16.51
2022-10-12T13:46:59.220Z,16.37
2022-10-12T13:49:32.408Z,16.58
2022-10-12T13:52:03.112Z,16.77
2022-10-12T13:54:39.800Z,17.07
2022-10-12T13:57:19.720Z,17.06
2022-10-12T13:59:52.551Z,17.30
2022-10-12T14:02:26.176Z,17.44
2022-10-12T14:04:57.766Z,17.90
2022-10-12T14:07:30.890Z,18.23
2022-10-12T14:10:05.421Z,18.33
2022-10-12T14:12:35.792Z,18.84
2022-10-12T14:15:06.929Z,18.69
2022-10-12T14:17:35.178Z,19.06
2022-10-12T14:20:19.851Z,19.38
2022-10-12T14:22:50.082Z,19.85
2022-10-12T14:25:21.908Z,19.82
2022-10-12T14:27:57.132Z,20.02
2022-10-12T14:30:29.771Z,20.17
2022-10-12T14:33:12.995Z,19.85
2022-10-12T14:35:46.708Z,19.53
2022-10-12T14:38:39.784Z,20.02
2022-10-12T14:41:35.352Z,20.14
2022-10-12T14:44:12.159Z,20.21
2022-10-12T14:46:43.166Z,20.05
2022-10-12T14:49:18.455Z,19.49
2022-10-12T14:51:49.749Z,18.93
2022-10-12T14:54:18.064Z,18.77
2022-10-12T14:56:46.423Z,18.45
2022-10-12T14:59:14.757Z,18.55
2022-10-12T15:01:46.309Z,18.32
2022-10-12T15:04:18.591Z,18.34
2022-10-12T15:06:50.853Z,18.63
2022-10-12T15:09:19.591Z,18.90
2022-10-12T15:11:47.842Z,18.88
2022-10-12T15:14:16.153Z,19.38
2022-10-12T15:16:44.396Z,19.27
2022-10-12T15:19:12.664Z,19.35
2022-10-12T15:21:42.056Z,19.52
2022-10-12T15:24:16.318Z,19.71
2022-10-12T15:26:44.551Z,19.98
2022-10-12T15:29:12.833Z,19.89
2022-10-12T15:31:41.087Z,19.83
2022-10-12T15:34:13.447Z,19.73
2022-10-12T15:36:42.090Z,19.39
2022-10-12T15:39:10.801Z,19.00
2022-10-12T15:41:40.387Z,18.64
2022-10-12T15:44:10.997Z,18.40
2022-10-12T15:46:39.473Z,18.18
2022-10-12T15:49:08.295Z,17.97
2022-10-12T15:51:41.463Z,17.18
2022-10-12T15:54:10.808Z,17.59
2022-10-12T15:56:40.672Z,17.57
2022-10-12T15:59:08.963Z,17.29
2022-10-12T16:01:38.586Z,17.04
2022-10-12T16:04:08.006Z,17.00
2022-10-12T16:06:36.649Z,16.92
2022-10-12T16:09:04.994Z,16.72
2022-10-12T16:11:33.213Z,16.63
2022-10-12T16:14:02.923Z,16.65
2022-10-12T16:16:32.276Z,16.37
2022-10-12T16:19:00.656Z,16.24
2022-10-12T16:21:28.946Z,16.21
2022-10-12T16:23:57.277Z,15.93
2022-10-12T16:26:27.268Z,15.89
2022-10-12T16:28:55.581Z,15.76
2022-10-12T16:31:25.303Z,15.85
2022-10-12T16:33:53.564Z,15.58
2022-10-12T16:36:21.851Z,15.65
2022-10-12T16:38:50.121Z,15.43
2022-10-12T16:41:18.759Z,16.05
2022-10-12T16:43:47.080Z,15.34
2022-10-12T16:46:15.369Z,15.09
2022-10-12T16:48:45.128Z,15.11
2022-10-12T16:51:14.495Z,15.01
2022-10-12T16:53:43.936Z,14.99
2022-10-12T16:56:12.307Z,14.99
2022-10-12T16:58:40.557Z,15.02
2022-10-12T17:01:11.190Z,14.82
2022-10-12T17:03:39.523Z,14.78
2022-10-12T17:06:10.695Z,14.71
2022-10-12T17:08:39.875Z,14.79
2022-10-12T17:11:09.424Z,14.60
2022-10-12T17:13:38.861Z,14.70
2022-10-12T17:16:34.828Z,14.54
2022-10-12T17:19:03.656Z,14.35
2022-10-12T17:21:33.482Z,14.48
2022-10-12T17:24:02.631Z,14.49
2022-10-12T17:26:31.512Z,14.16
2022-10-12T17:28:59.781Z,14.34
2022-10-12T17:31:28.703Z,14.42
2022-10-12T17:33:58.214Z,14.32
2022-10-12T17:36:28.380Z,14.30
2022-10-12T17:39:00.239Z,13.49
2022-10-12T17:41:30.037Z,14.20
2022-10-12T17:43:58.955Z,14.24
2022-10-12T17:46:28.087Z,14.14
2022-10-12T17:48:57.545Z,14.04
2022-10-12T17:51:25.929Z,14.11
2022-10-12T17:53:54.465Z,14.05
2022-10-12T17:56:24.203Z,14.12
2022-10-12T17:58:55.867Z,14.01
2022-10-12T18:01:25.099Z,13.93
2022-10-12T18:04:06.432Z,13.86
2022-10-12T18:06:35.429Z,13.80
2022-10-12T18:09:05.746Z,13.71
2022-10-12T18:11:36.727Z,13.39
2022-10-12T18:14:05.051Z,13.72
2022-10-12T18:16:35.392Z,13.51
2022-10-12T18:19:05.282Z,13.42
2022-10-12T18:21:34.795Z,13.30
2022-10-12T18:24:05.326Z,13.36
2022-10-12T18:26:35.028Z,13.34
2022-10-12T18:29:05.172Z,13.24
2022-10-12T18:31:33.376Z,13.32
2022-10-12T18:34:02.719Z,13.30
2022-10-12T18:36:30.965Z,13.16
2022-10-12T18:39:02.320Z,13.07
2022-10-12T18:41:31.271Z,13.06
2022-10-12T18:44:02.626Z,13.04
2022-10-12T18:46:33.923Z,12.92
2022-10-12T18:49:05.266Z,12.85
2022-10-12T18:51:35.582Z,12.72
2022-10-12T18:54:05.933Z,12.80
2022-10-12T18:56:37.179Z,12.81
2022-10-12T18:59:07.915Z,12.72
2022-10-12T19:01:36.470Z,12.55
2022-10-12T19:04:06.753Z,12.47
2022-10-12T19:06:37.501Z,12.39
2022-10-12T19:09:06.851Z,12.37
2022-10-12T19:11:36.803Z,12.21
2022-10-12T19:14:09.050Z,12.16
2022-10-12T19:16:37.469Z,12.13
2022-10-12T19:19:08.666Z,12.04
2022-10-12T19:21:36.917Z,11.87
2022-10-12T19:24:10.518Z,11.86
2022-10-12T19:26:38.820Z,11.69
2022-10-12T19:29:08.579Z,11.55
2022-10-12T19:31:39.249Z,11.51
2022-10-12T19:34:11.008Z,11.51
2022-10-12T19:36:40.272Z,11.42
2022-10-12T19:39:10.868Z,11.26
2022-10-12T19:41:39.627Z,11.28
2022-10-12T19:44:09.539Z,11.27
2022-10-12T19:46:37.856Z,11.13
2022-10-12T19:49:06.702Z,10.36
2022-10-12T19:51:35.036Z,10.94
2022-10-12T19:54:05.171Z,11.03
2022-10-12T19:56:34.626Z,10.95
2022-10-12T19:59:03.034Z,10.80
2022-10-12T20:01:36.791Z,10.85
2022-10-12T20:04:09.898Z,10.74
2022-10-12T20:06:44.018Z,10.60
2022-10-12T20:09:12.352Z,10.63
2022-10-12T20:11:40.931Z,10.60
2022-10-12T20:14:09.565Z,10.58
2022-10-12T20:16:39.205Z,10.54
2022-10-12T20:19:08.077Z,10.47
2022-10-12T20:21:37.477Z,10.25
2022-10-12T20:24:09.711Z,10.24
2022-10-12T20:26:37.932Z,10.15
2022-10-12T20:29:06.249Z,10.03
2022-10-12T20:31:34.519Z,10.13
2022-10-12T20:34:04.266Z,10.09
2022-10-12T20:36:32.892Z,9.92
2022-10-12T20:39:01.775Z,9.43
2022-10-12T20:41:30.041Z,9.97
2022-10-12T20:44:00.298Z,10.06
2022-10-12T20:46:30.078Z,10.07
2022-10-12T20:49:01.122Z,9.76
2022-10-12T20:51:34.004Z,9.91
2022-10-12T20:54:04.125Z,9.80
2022-10-12T20:56:34.207Z,9.86
2022-10-12T20:59:03.117Z,9.81
2022-10-12T21:01:31.386Z,9.73
2022-10-12T21:03:59.719Z,9.74
2022-10-12T21:06:28.798Z,9.80
2022-10-12T21:08:59.211Z,9.88
2022-10-12T21:11:27.594Z,9.82
2022-10-12T21:13:56.955Z,9.77
2022-10-12T21:16:27.043Z,9.81
2022-10-12T21:18:56.312Z,9.76
2022-10-12T21:21:25.063Z,9.67
2022-10-12T21:23:55.732Z,9.61
2022-10-12T21:26:27.668Z,9.42
2022-10-12T21:28:56.387Z,9.42
2022-10-12T21:31:29.517Z,9.44
2022-10-12T21:34:01.129Z,9.38
2022-10-12T21:36:30.808Z,9.39
2022-10-12T21:38:59.400Z,9.39
2022-10-12T21:41:31.194Z,9.43
2022-10-12T21:43:59.769Z,9.41
2022-10-12T21:46:30.484Z,9.22
2022-10-12T21:49:00.636Z,9.26
2022-10-12T21:51:31.048Z,9.19
2022-10-12T21:53:59.488Z,9.23
2022-10-12T21:56:32.158Z,9.20
2022-10-12T21:59:02.610Z,8.93
2022-10-12T22:01:34.713Z,9.11
2022-10-12T22:04:11.011Z,8.99
2022-10-12T22:06:39.320Z,9.01
2022-10-12T22:09:10.704Z,8.93
2022-10-12T22:11:40.447Z,8.74
2022-10-12T22:14:15.946Z,8.83
2022-10-12T22:16:44.897Z,8.66
2022-10-12T22:19:18.817Z,8.25
2022-10-12T22:21:48.460Z,8.82
2022-10-12T22:24:17.206Z,8.68
2022-10-12T22:26:46.909Z,8.84
2022-10-12T22:29:15.239Z,8.70
2022-10-12T22:31:44.441Z,8.73
2022-10-12T22:34:13.111Z,8.64
2022-10-12T22:36:41.404Z,8.65
2022-10-12T22:39:09.791Z,8.49
2022-10-12T22:41:37.998Z,8.61
2022-10-12T22:44:07.735Z,8.25
2022-10-12T22:46:36.410Z,8.22
2022-10-12T22:49:04.916Z,8.28
2022-10-12T22:51:35.405Z,8.21
2022-10-12T22:54:04.512Z,8.18
2022-10-12T22:56:32.908Z,8.10
2022-10-12T22:59:06.594Z,8.15
2022-10-12T23:01:36.877Z,8.07
2022-10-12T23:04:05.640Z,8.11
2022-10-12T23:06:34.093Z,8.08
2022-10-12T23:09:02.752Z,7.97
2022-10-12T23:11:31.647Z,8.03
2022-10-12T23:13:59.944Z,8.00
2022-10-12T23:16:31.382Z,7.97
2022-10-12T23:19:03.045Z,7.95
2022-10-12T23:21:33.761Z,7.90
2022-10-12T23:24:04.975Z,7.77
2022-10-12T23:26:33.833Z,7.71
2022-10-12T23:29:02.093Z,7.60
2022-10-12T23:31:31.602Z,7.56
2022-10-12T23:34:06.811Z,7.45
2022-10-12T23:36:35.757Z,7.57
2022-10-12T23:39:05.980Z,7.54
2022-10-12T23:41:34.708Z,7.42
2022-10-12T23:44:03.114Z,7.46
2022-10-12T23:46:31.515Z,7.34
2022-10-12T23:49:00.119Z,7.51
2022-10-12T23:51:29.733Z,7.52
2022-10-12T23:53:58.046Z,7.52
2022-10-12T23:56:26.359Z,7.52
2022-10-12T23:58:54.787Z,7.35
